sensor_id;sensor_type;location;lat;lon;timestamp;temperature;humidity
31725;DHT22;18306;40.960;14.836;2024-03-08T00:01:06;5.30;88.20
31725;DHT22;18306;40.960;14.836;2024-03-08T00:03:33;5.20;87.90
31725;DHT22;18306;40.960;14.836;2024-03-08T00:06:00;5.00;88.70
31725;DHT22;18306;40.960;14.836;2024-03-08T00:08:27;4.90;89.10
31725;DHT22;18306;40.960;14.836;2024-03-08T00:10:53;4.80;90.40
31725;DHT22;18306;40.960;14.836;2024-03-08T00:13:20;4.90;89.90
31725;DHT22;18306;40.960;14.836;2024-03-08T00:15:47;4.70;89.50
31725;DHT22;18306;40.960;14.836;2024-03-08T00:18:13;4.70;89.30
31725;DHT22;18306;40.960;14.836;2024-03-08T00:20:40;4.60;89.50
31725;DHT22;18306;40.960;14.836;2024-03-08T00:23:07;4.60;91.00
31725;DHT22;18306;40.960;14.836;2024-03-08T00:25:34;4.60;91.00
31725;DHT22;18306;40.960;14.836;2024-03-08T00:28:01;4.60;90.20
31725;DHT22;18306;40.960;14.836;2024-03-08T00:30:28;4.60;90.60
31725;DHT22;18306;40.960;14.836;2024-03-08T00:32:54;4.70;90.90
31725;DHT22;18306;40.960;14.836;2024-03-08T00:35:21;4.80;90.30
31725;DHT22;18306;40.960;14.836;2024-03-08T00:37:49;4.90;88.00
31725;DHT22;18306;40.960;14.836;2024-03-08T00:40:15;4.80;87.70
31725;DHT22;18306;40.960;14.836;2024-03-08T00:42:42;4.60;87.90
31725;DHT22;18306;40.960;14.836;2024-03-08T00:45:10;4.60;88.00
31725;DHT22;18306;40.960;14.836;2024-03-08T00:47:36;4.60;87.20
31725;DHT22;18306;40.960;14.836;2024-03-08T00:50:03;4.50;88.50
31725;DHT22;18306;40.960;14.836;2024-03-08T00:52:30;4.40;88.50
31725;DHT22;18306;40.960;14.836;2024-03-08T00:54:57;4.30;88.40
31725;DHT22;18306;40.960;14.836;2024-03-08T00:57:24;4.30;89.00
31725;DHT22;18306;40.960;14.836;2024-03-08T00:59:50;4.20;88.30
31725;DHT22;18306;40.960;14.836;2024-03-08T01:02:17;4.20;89.90
31725;DHT22;18306;40.960;14.836;2024-03-08T01:04:45;4.20;90.70
31725;DHT22;18306;40.960;14.836;2024-03-08T01:07:13;4.20;89.30
31725;DHT22;18306;40.960;14.836;2024-03-08T01:09:40;4.10;89.00
31725;DHT22;18306;40.960;14.836;2024-03-08T01:12:07;4.10;88.60
31725;DHT22;18306;40.960;14.836;2024-03-08T01:14:34;4.10;89.00
31725;DHT22;18306;40.960;14.836;2024-03-08T01:17:00;4.00;89.40
31725;DHT22;18306;40.960;14.836;2024-03-08T01:19:27;4.00;90.30
31725;DHT22;18306;40.960;14.836;2024-03-08T01:21:54;4.00;90.60
31725;DHT22;18306;40.960;14.836;2024-03-08T01:24:23;3.90;89.90
31725;DHT22;18306;40.960;14.836;2024-03-08T01:26:50;4.00;89.90
31725;DHT22;18306;40.960;14.836;2024-03-08T01:29:16;4.00;90.10
31725;DHT22;18306;40.960;14.836;2024-03-08T01:31:43;4.00;87.20
31725;DHT22;18306;40.960;14.836;2024-03-08T01:34:10;3.90;86.90
31725;DHT22;18306;40.960;14.836;2024-03-08T01:36:37;3.80;88.70
31725;DHT22;18306;40.960;14.836;2024-03-08T01:39:03;3.80;89.00
31725;DHT22;18306;40.960;14.836;2024-03-08T01:41:34;3.50;90.50
31725;DHT22;18306;40.960;14.836;2024-03-08T01:44:02;3.40;91.80
31725;DHT22;18306;40.960;14.836;2024-03-08T01:46:29;3.50;91.10
31725;DHT22;18306;40.960;14.836;2024-03-08T01:48:57;3.60;91.20
31725;DHT22;18306;40.960;14.836;2024-03-08T01:51:24;3.70;91.10
31725;DHT22;18306;40.960;14.836;2024-03-08T01:53:50;3.80;90.40
31725;DHT22;18306;40.960;14.836;2024-03-08T01:56:17;3.90;88.70
31725;DHT22;18306;40.960;14.836;2024-03-08T01:58:44;3.90;88.90
31725;DHT22;18306;40.960;14.836;2024-03-08T02:01:12;4.00;88.90
31725;DHT22;18306;40.960;14.836;2024-03-08T02:03:41;4.00;87.70
31725;DHT22;18306;40.960;14.836;2024-03-08T02:06:13;3.80;88.40
31725;DHT22;18306;40.960;14.836;2024-03-08T02:08:45;3.70;89.80
31725;DHT22;18306;40.960;14.836;2024-03-08T02:11:14;3.60;90.60
31725;DHT22;18306;40.960;14.836;2024-03-08T02:13:41;3.60;90.80
31725;DHT22;18306;40.960;14.836;2024-03-08T02:16:07;3.50;90.30
31725;DHT22;18306;40.960;14.836;2024-03-08T02:18:34;3.50;90.20
31725;DHT22;18306;40.960;14.836;2024-03-08T02:21:02;3.60;90.10
31725;DHT22;18306;40.960;14.836;2024-03-08T02:23:29;3.60;90.00
31725;DHT22;18306;40.960;14.836;2024-03-08T02:25:56;3.50;90.70
31725;DHT22;18306;40.960;14.836;2024-03-08T02:28:27;3.50;90.10
31725;DHT22;18306;40.960;14.836;2024-03-08T02:30:55;3.50;88.90
31725;DHT22;18306;40.960;14.836;2024-03-08T02:33:22;3.50;90.10
31725;DHT22;18306;40.960;14.836;2024-03-08T02:35:49;3.50;89.90
31725;DHT22;18306;40.960;14.836;2024-03-08T02:38:18;3.60;89.70
31725;DHT22;18306;40.960;14.836;2024-03-08T02:40:45;3.60;90.00
31725;DHT22;18306;40.960;14.836;2024-03-08T02:43:13;3.50;89.60
31725;DHT22;18306;40.960;14.836;2024-03-08T02:45:40;3.50;89.30
31725;DHT22;18306;40.960;14.836;2024-03-08T02:48:10;3.50;88.90
31725;DHT22;18306;40.960;14.836;2024-03-08T02:50:37;3.40;88.60
31725;DHT22;18306;40.960;14.836;2024-03-08T02:53:06;3.40;89.10
31725;DHT22;18306;40.960;14.836;2024-03-08T02:55:34;3.40;89.30
31725;DHT22;18306;40.960;14.836;2024-03-08T02:58:02;3.30;89.20
31725;DHT22;18306;40.960;14.836;2024-03-08T03:00:35;3.30;89.40
31725;DHT22;18306;40.960;14.836;2024-03-08T03:03:02;3.30;90.50
31725;DHT22;18306;40.960;14.836;2024-03-08T03:05:29;3.40;89.60
31725;DHT22;18306;40.960;14.836;2024-03-08T03:07:56;3.50;89.00
31725;DHT22;18306;40.960;14.836;2024-03-08T03:10:25;3.50;88.90
31725;DHT22;18306;40.960;14.836;2024-03-08T03:12:52;3.40;88.70
31725;DHT22;18306;40.960;14.836;2024-03-08T03:15:19;3.40;89.30
31725;DHT22;18306;40.960;14.836;2024-03-08T03:17:47;3.50;89.10
31725;DHT22;18306;40.960;14.836;2024-03-08T03:20:14;3.60;88.80
31725;DHT22;18306;40.960;14.836;2024-03-08T03:22:42;3.60;88.80
31725;DHT22;18306;40.960;14.836;2024-03-08T03:25:13;3.70;88.60
31725;DHT22;18306;40.960;14.836;2024-03-08T03:27:40;3.70;88.20
31725;DHT22;18306;40.960;14.836;2024-03-08T03:30:08;3.70;86.40
31725;DHT22;18306;40.960;14.836;2024-03-08T03:32:53;3.30;86.30
31725;DHT22;18306;40.960;14.836;2024-03-08T03:35:21;3.20;86.20
31725;DHT22;18306;40.960;14.836;2024-03-08T03:37:49;3.00;87.60
31725;DHT22;18306;40.960;14.836;2024-03-08T03:40:32;3.00;88.90
31725;DHT22;18306;40.960;14.836;2024-03-08T03:42:59;3.20;88.80
31725;DHT22;18306;40.960;14.836;2024-03-08T03:45:26;3.20;87.30
31725;DHT22;18306;40.960;14.836;2024-03-08T03:47:53;3.20;86.40
31725;DHT22;18306;40.960;14.836;2024-03-08T03:50:20;3.00;87.40
31725;DHT22;18306;40.960;14.836;2024-03-08T03:52:47;3.00;88.40
31725;DHT22;18306;40.960;14.836;2024-03-08T03:55:14;2.90;89.10
31725;DHT22;18306;40.960;14.836;2024-03-08T03:57:41;2.90;88.90
31725;DHT22;18306;40.960;14.836;2024-03-08T04:00:08;3.00;88.90
31725;DHT22;18306;40.960;14.836;2024-03-08T04:02:41;3.00;87.20
31725;DHT22;18306;40.960;14.836;2024-03-08T04:05:09;2.80;87.90
31725;DHT22;18306;40.960;14.836;2024-03-08T04:07:36;2.80;88.70
31725;DHT22;18306;40.960;14.836;2024-03-08T04:10:03;2.70;89.20
31725;DHT22;18306;40.960;14.836;2024-03-08T04:12:32;2.60;89.20
31725;DHT22;18306;40.960;14.836;2024-03-08T04:14:59;2.50;90.10
31725;DHT22;18306;40.960;14.836;2024-03-08T04:17:26;2.60;90.10
31725;DHT22;18306;40.960;14.836;2024-03-08T04:19:53;2.60;89.40
31725;DHT22;18306;40.960;14.836;2024-03-08T04:22:20;2.60;89.30
31725;DHT22;18306;40.960;14.836;2024-03-08T04:24:47;2.50;89.80
31725;DHT22;18306;40.960;14.836;2024-03-08T04:27:14;2.50;89.40
31725;DHT22;18306;40.960;14.836;2024-03-08T04:29:43;2.50;88.80
31725;DHT22;18306;40.960;14.836;2024-03-08T04:32:10;2.50;89.00
31725;DHT22;18306;40.960;14.836;2024-03-08T04:34:36;2.60;88.40
31725;DHT22;18306;40.960;14.836;2024-03-08T04:37:03;2.40;89.10
31725;DHT22;18306;40.960;14.836;2024-03-08T04:39:32;2.30;90.40
31725;DHT22;18306;40.960;14.836;2024-03-08T04:42:01;2.30;90.60
31725;DHT22;18306;40.960;14.836;2024-03-08T04:44:30;2.30;90.40
31725;DHT22;18306;40.960;14.836;2024-03-08T04:46:57;2.10;91.10
31725;DHT22;18306;40.960;14.836;2024-03-08T04:49:24;2.10;91.30
31725;DHT22;18306;40.960;14.836;2024-03-08T04:51:54;2.00;91.20
31725;DHT22;18306;40.960;14.836;2024-03-08T04:54:20;2.00;91.70
31725;DHT22;18306;40.960;14.836;2024-03-08T04:56:47;2.10;91.30
31725;DHT22;18306;40.960;14.836;2024-03-08T04:59:14;2.20;91.10
31725;DHT22;18306;40.960;14.836;2024-03-08T05:01:41;2.10;91.40
31725;DHT22;18306;40.960;14.836;2024-03-08T05:04:09;2.10;92.00
31725;DHT22;18306;40.960;14.836;2024-03-08T05:06:36;2.20;91.40
31725;DHT22;18306;40.960;14.836;2024-03-08T05:09:03;2.20;90.90
31725;DHT22;18306;40.960;14.836;2024-03-08T05:11:40;2.20;91.70
31725;DHT22;18306;40.960;14.836;2024-03-08T05:14:06;2.30;90.10
31725;DHT22;18306;40.960;14.836;2024-03-08T05:16:33;2.30;90.00
31725;DHT22;18306;40.960;14.836;2024-03-08T05:19:00;2.40;89.60
31725;DHT22;18306;40.960;14.836;2024-03-08T05:21:27;2.30;89.80
31725;DHT22;18306;40.960;14.836;2024-03-08T05:23:58;2.40;90.00
31725;DHT22;18306;40.960;14.836;2024-03-08T05:26:25;2.40;90.10
31725;DHT22;18306;40.960;14.836;2024-03-08T05:28:52;2.50;89.80
31725;DHT22;18306;40.960;14.836;2024-03-08T05:31:19;2.50;89.40
31725;DHT22;18306;40.960;14.836;2024-03-08T05:33:48;2.60;89.50
31725;DHT22;18306;40.960;14.836;2024-03-08T05:36:16;2.70;89.10
31725;DHT22;18306;40.960;14.836;2024-03-08T05:38:43;2.60;87.10
31725;DHT22;18306;40.960;14.836;2024-03-08T05:41:10;2.40;88.10
31725;DHT22;18306;40.960;14.836;2024-03-08T05:43:38;2.40;88.50
31725;DHT22;18306;40.960;14.836;2024-03-08T05:46:06;2.50;88.90
31725;DHT22;18306;40.960;14.836;2024-03-08T05:48:33;2.60;88.60
31725;DHT22;18306;40.960;14.836;2024-03-08T05:51:00;2.50;88.30
31725;DHT22;18306;40.960;14.836;2024-03-08T05:53:28;2.40;88.60
31725;DHT22;18306;40.960;14.836;2024-03-08T05:55:58;2.40;89.30
31725;DHT22;18306;40.960;14.836;2024-03-08T05:58:25;2.50;89.50
31725;DHT22;18306;40.960;14.836;2024-03-08T06:00:52;2.60;88.70
31725;DHT22;18306;40.960;14.836;2024-03-08T06:03:19;2.60;88.70
31725;DHT22;18306;40.960;14.836;2024-03-08T06:05:48;2.60;88.40
31725;DHT22;18306;40.960;14.836;2024-03-08T06:08:16;2.60;88.40
31725;DHT22;18306;40.960;14.836;2024-03-08T06:10:43;2.60;88.10
31725;DHT22;18306;40.960;14.836;2024-03-08T06:13:09;2.50;87.70
31725;DHT22;18306;40.960;14.836;2024-03-08T06:15:38;2.40;88.50
31725;DHT22;18306;40.960;14.836;2024-03-08T06:18:06;2.40;89.10
31725;DHT22;18306;40.960;14.836;2024-03-08T06:20:33;2.60;88.60
31725;DHT22;18306;40.960;14.836;2024-03-08T06:23:01;2.50;88.70
31725;DHT22;18306;40.960;14.836;2024-03-08T06:25:27;2.50;89.50
31725;DHT22;18306;40.960;14.836;2024-03-08T06:27:54;2.50;89.80
31725;DHT22;18306;40.960;14.836;2024-03-08T06:30:21;2.80;89.60
31725;DHT22;18306;40.960;14.836;2024-03-08T06:32:48;2.90;88.80
31725;DHT22;18306;40.960;14.836;2024-03-08T06:35:15;2.90;88.60
31725;DHT22;18306;40.960;14.836;2024-03-08T06:37:42;2.90;88.80
31725;DHT22;18306;40.960;14.836;2024-03-08T06:40:10;3.00;89.20
31725;DHT22;18306;40.960;14.836;2024-03-08T06:42:40;3.20;89.20
31725;DHT22;18306;40.960;14.836;2024-03-08T06:45:07;3.50;88.00
31725;DHT22;18306;40.960;14.836;2024-03-08T06:47:35;3.80;87.20
31725;DHT22;18306;40.960;14.836;2024-03-08T06:50:03;3.90;87.20
31725;DHT22;18306;40.960;14.836;2024-03-08T06:52:30;4.00;86.90
31725;DHT22;18306;40.960;14.836;2024-03-08T06:54:57;4.00;87.10
31725;DHT22;18306;40.960;14.836;2024-03-08T06:57:24;4.20;87.40
31725;DHT22;18306;40.960;14.836;2024-03-08T06:59:51;4.40;86.30
31725;DHT22;18306;40.960;14.836;2024-03-08T07:02:18;4.70;85.00
31725;DHT22;18306;40.960;14.836;2024-03-08T07:04:45;4.90;84.60
31725;DHT22;18306;40.960;14.836;2024-03-08T07:07:12;4.90;83.60
31725;DHT22;18306;40.960;14.836;2024-03-08T07:09:38;4.70;84.50
31725;DHT22;18306;40.960;14.836;2024-03-08T07:12:05;4.60;86.00
31725;DHT22;18306;40.960;14.836;2024-03-08T07:14:32;4.60;86.40
31725;DHT22;18306;40.960;14.836;2024-03-08T07:16:59;4.70;86.50
31725;DHT22;18306;40.960;14.836;2024-03-08T07:19:27;4.90;85.90
31725;DHT22;18306;40.960;14.836;2024-03-08T07:21:54;5.20;85.50
31725;DHT22;18306;40.960;14.836;2024-03-08T07:24:21;5.50;85.50
31725;DHT22;18306;40.960;14.836;2024-03-08T07:27:04;5.90;84.30
31725;DHT22;18306;40.960;14.836;2024-03-08T07:29:34;6.50;82.30
31725;DHT22;18306;40.960;14.836;2024-03-08T07:32:01;7.10;80.50
31725;DHT22;18306;40.960;14.836;2024-03-08T07:34:47;7.90;77.60
31725;DHT22;18306;40.960;14.836;2024-03-08T07:37:14;9.00;73.00
31725;DHT22;18306;40.960;14.836;2024-03-08T07:39:41;9.40;70.70
31725;DHT22;18306;40.960;14.836;2024-03-08T07:42:08;9.50;70.90
31725;DHT22;18306;40.960;14.836;2024-03-08T07:44:36;9.70;69.20
31725;DHT22;18306;40.960;14.836;2024-03-08T07:47:03;10.00;69.10
31725;DHT22;18306;40.960;14.836;2024-03-08T07:49:30;10.40;67.60
31725;DHT22;18306;40.960;14.836;2024-03-08T07:51:56;10.70;66.90
31725;DHT22;18306;40.960;14.836;2024-03-08T07:54:24;10.70;66.70
31725;DHT22;18306;40.960;14.836;2024-03-08T07:56:52;10.90;65.70
31725;DHT22;18306;40.960;14.836;2024-03-08T07:59:19;11.60;63.70
31725;DHT22;18306;40.960;14.836;2024-03-08T08:01:47;12.90;61.20
31725;DHT22;18306;40.960;14.836;2024-03-08T08:04:14;14.50;57.30
31725;DHT22;18306;40.960;14.836;2024-03-08T08:06:41;15.30;54.40
31725;DHT22;18306;40.960;14.836;2024-03-08T08:09:09;14.70;54.70
31725;DHT22;18306;40.960;14.836;2024-03-08T08:11:42;13.40;57.60
31725;DHT22;18306;40.960;14.836;2024-03-08T08:14:12;12.20;61.10
31725;DHT22;18306;40.960;14.836;2024-03-08T08:16:38;11.50;64.10
31725;DHT22;18306;40.960;14.836;2024-03-08T08:19:07;10.80;66.90
31725;DHT22;18306;40.960;14.836;2024-03-08T08:21:34;10.50;68.30
31725;DHT22;18306;40.960;14.836;2024-03-08T08:24:03;10.10;69.40
31725;DHT22;18306;40.960;14.836;2024-03-08T08:26:30;9.70;70.70
31725;DHT22;18306;40.960;14.836;2024-03-08T08:28:57;9.40;73.20
31725;DHT22;18306;40.960;14.836;2024-03-08T08:31:24;9.30;74.00
31725;DHT22;18306;40.960;14.836;2024-03-08T08:33:51;9.30;73.40
31725;DHT22;18306;40.960;14.836;2024-03-08T08:36:22;9.40;73.40
31725;DHT22;18306;40.960;14.836;2024-03-08T08:38:49;9.50;73.10
31725;DHT22;18306;40.960;14.836;2024-03-08T08:41:16;9.60;73.50
31725;DHT22;18306;40.960;14.836;2024-03-08T08:43:43;9.70;74.00
31725;DHT22;18306;40.960;14.836;2024-03-08T08:46:10;9.80;73.10
31725;DHT22;18306;40.960;14.836;2024-03-08T08:48:40;9.90;73.30
31725;DHT22;18306;40.960;14.836;2024-03-08T08:51:13;10.10;72.60
31725;DHT22;18306;40.960;14.836;2024-03-08T08:53:40;10.20;72.20
31725;DHT22;18306;40.960;14.836;2024-03-08T08:56:09;10.30;70.90
31725;DHT22;18306;40.960;14.836;2024-03-08T08:58:39;10.40;70.00
31725;DHT22;18306;40.960;14.836;2024-03-08T09:01:07;10.50;70.50
31725;DHT22;18306;40.960;14.836;2024-03-08T09:03:34;10.60;68.60
31725;DHT22;18306;40.960;14.836;2024-03-08T09:06:01;10.80;67.80
31725;DHT22;18306;40.960;14.836;2024-03-08T09:08:29;10.90;67.60
31725;DHT22;18306;40.960;14.836;2024-03-08T09:10:56;11.10;66.20
31725;DHT22;18306;40.960;14.836;2024-03-08T09:13:23;11.20;64.40
31725;DHT22;18306;40.960;14.836;2024-03-08T09:15:50;11.20;63.90
31725;DHT22;18306;40.960;14.836;2024-03-08T09:18:19;11.30;62.90
31725;DHT22;18306;40.960;14.836;2024-03-08T09:20:45;11.40;63.70
31725;DHT22;18306;40.960;14.836;2024-03-08T09:23:13;11.40;64.00
31725;DHT22;18306;40.960;14.836;2024-03-08T09:25:41;11.50;64.80
31725;DHT22;18306;40.960;14.836;2024-03-08T09:28:08;11.50;64.70
31725;DHT22;18306;40.960;14.836;2024-03-08T09:30:35;11.60;64.00
31725;DHT22;18306;40.960;14.836;2024-03-08T09:33:04;11.70;63.80
31725;DHT22;18306;40.960;14.836;2024-03-08T09:35:30;11.90;63.00
31725;DHT22;18306;40.960;14.836;2024-03-08T09:37:57;12.00;64.30
31725;DHT22;18306;40.960;14.836;2024-03-08T09:40:24;12.10;61.90
31725;DHT22;18306;40.960;14.836;2024-03-08T09:42:51;12.20;61.10
31725;DHT22;18306;40.960;14.836;2024-03-08T09:45:19;12.20;60.60
31725;DHT22;18306;40.960;14.836;2024-03-08T09:47:48;12.10;62.20
31725;DHT22;18306;40.960;14.836;2024-03-08T09:50:19;12.10;62.20
31725;DHT22;18306;40.960;14.836;2024-03-08T09:52:47;12.20;62.60
31725;DHT22;18306;40.960;14.836;2024-03-08T09:55:14;12.30;61.90
31725;DHT22;18306;40.960;14.836;2024-03-08T09:57:43;12.40;61.40
31725;DHT22;18306;40.960;14.836;2024-03-08T10:00:33;12.40;60.60
31725;DHT22;18306;40.960;14.836;2024-03-08T10:03:00;12.50;58.70
31725;DHT22;18306;40.960;14.836;2024-03-08T10:05:27;12.50;58.30
31725;DHT22;18306;40.960;14.836;2024-03-08T10:07:57;12.60;60.10
31725;DHT22;18306;40.960;14.836;2024-03-08T10:10:25;12.60;59.70
31725;DHT22;18306;40.960;14.836;2024-03-08T10:12:52;12.70;57.10
31725;DHT22;18306;40.960;14.836;2024-03-08T10:15:19;12.80;58.00
31725;DHT22;18306;40.960;14.836;2024-03-08T10:17:46;12.90;55.80
31725;DHT22;18306;40.960;14.836;2024-03-08T10:20:14;13.00;56.50
31725;DHT22;18306;40.960;14.836;2024-03-08T10:22:41;13.00;56.60
31725;DHT22;18306;40.960;14.836;2024-03-08T10:25:31;13.00;57.30
31725;DHT22;18306;40.960;14.836;2024-03-08T10:28:06;13.10;56.70
31725;DHT22;18306;40.960;14.836;2024-03-08T10:30:33;13.10;57.80
31725;DHT22;18306;40.960;14.836;2024-03-08T10:32:59;13.20;57.90
31725;DHT22;18306;40.960;14.836;2024-03-08T10:35:27;13.20;57.90
31725;DHT22;18306;40.960;14.836;2024-03-08T10:37:54;13.30;57.30
31725;DHT22;18306;40.960;14.836;2024-03-08T10:40:29;13.40;57.20
31725;DHT22;18306;40.960;14.836;2024-03-08T10:42:59;13.40;55.50
31725;DHT22;18306;40.960;14.836;2024-03-08T10:45:29;13.50;54.70
31725;DHT22;18306;40.960;14.836;2024-03-08T10:50:43;13.40;57.40
31725;DHT22;18306;40.960;14.836;2024-03-08T10:53:21;13.50;56.00
31725;DHT22;18306;40.960;14.836;2024-03-08T10:55:49;13.60;54.10
31725;DHT22;18306;40.960;14.836;2024-03-08T10:58:20;13.60;54.20
31725;DHT22;18306;40.960;14.836;2024-03-08T11:00:48;13.60;55.60
31725;DHT22;18306;40.960;14.836;2024-03-08T11:06:07;13.60;55.50
31725;DHT22;18306;40.960;14.836;2024-03-08T11:08:36;13.60;56.40
31725;DHT22;18306;40.960;14.836;2024-03-08T11:11:03;13.70;54.90
31725;DHT22;18306;40.960;14.836;2024-03-08T11:13:41;13.80;54.40
31725;DHT22;18306;40.960;14.836;2024-03-08T11:16:10;13.90;53.20
31725;DHT22;18306;40.960;14.836;2024-03-08T11:18:37;13.90;54.80
31725;DHT22;18306;40.960;14.836;2024-03-08T11:21:04;13.90;54.60
31725;DHT22;18306;40.960;14.836;2024-03-08T11:23:38;13.80;56.00
31725;DHT22;18306;40.960;14.836;2024-03-08T11:26:23;13.80;56.10
31725;DHT22;18306;40.960;14.836;2024-03-08T11:28:50;13.80;55.60
31725;DHT22;18306;40.960;14.836;2024-03-08T11:31:22;13.90;54.40
31725;DHT22;18306;40.960;14.836;2024-03-08T11:33:49;13.90;54.80
31725;DHT22;18306;40.960;14.836;2024-03-08T11:36:20;13.90;55.00
31725;DHT22;18306;40.960;14.836;2024-03-08T11:38:48;13.90;54.30
31725;DHT22;18306;40.960;14.836;2024-03-08T11:41:19;14.00;54.80
31725;DHT22;18306;40.960;14.836;2024-03-08T11:43:49;13.90;54.80
31725;DHT22;18306;40.960;14.836;2024-03-08T11:46:16;13.90;53.70
31725;DHT22;18306;40.960;14.836;2024-03-08T11:48:44;13.90;52.60
31725;DHT22;18306;40.960;14.836;2024-03-08T11:51:11;14.10;51.20
31725;DHT22;18306;40.960;14.836;2024-03-08T11:53:38;14.00;53.00
31725;DHT22;18306;40.960;14.836;2024-03-08T11:56:06;14.00;53.70
31725;DHT22;18306;40.960;14.836;2024-03-08T11:58:33;14.00;53.60
31725;DHT22;18306;40.960;14.836;2024-03-08T12:01:05;13.90;53.60
31725;DHT22;18306;40.960;14.836;2024-03-08T12:03:33;14.00;54.20
31725;DHT22;18306;40.960;14.836;2024-03-08T12:06:05;14.00;54.20
31725;DHT22;18306;40.960;14.836;2024-03-08T12:08:37;13.90;53.90
31725;DHT22;18306;40.960;14.836;2024-03-08T12:11:04;14.00;54.50
31725;DHT22;18306;40.960;14.836;2024-03-08T12:13:32;14.10;53.30
31725;DHT22;18306;40.960;14.836;2024-03-08T12:16:02;14.10;52.60
31725;DHT22;18306;40.960;14.836;2024-03-08T12:18:33;14.20;51.20
31725;DHT22;18306;40.960;14.836;2024-03-08T12:21:06;14.20;48.40
31725;DHT22;18306;40.960;14.836;2024-03-08T12:24:24;14.20;50.70
31725;DHT22;18306;40.960;14.836;2024-03-08T12:26:48;14.20;51.70
31725;DHT22;18306;40.960;14.836;2024-03-08T12:29:16;14.20;51.30
31725;DHT22;18306;40.960;14.836;2024-03-08T12:31:44;14.20;51.70
31725;DHT22;18306;40.960;14.836;2024-03-08T12:34:12;14.20;53.00
31725;DHT22;18306;40.960;14.836;2024-03-08T12:36:50;14.20;52.60
31725;DHT22;18306;40.960;14.836;2024-03-08T12:39:20;14.20;52.70
31725;DHT22;18306;40.960;14.836;2024-03-08T12:41:53;14.30;51.60
31725;DHT22;18306;40.960;14.836;2024-03-08T12:44:25;14.40;50.20
31725;DHT22;18306;40.960;14.836;2024-03-08T12:46:54;14.30;50.90
31725;DHT22;18306;40.960;14.836;2024-03-08T12:49:23;14.30;52.30
31725;DHT22;18306;40.960;14.836;2024-03-08T12:51:51;14.40;52.80
31725;DHT22;18306;40.960;14.836;2024-03-08T12:54:18;14.40;51.60
31725;DHT22;18306;40.960;14.836;2024-03-08T12:56:49;14.40;52.50
31725;DHT22;18306;40.960;14.836;2024-03-08T12:59:19;14.50;51.40
31725;DHT22;18306;40.960;14.836;2024-03-08T13:01:48;14.40;51.80
31725;DHT22;18306;40.960;14.836;2024-03-08T13:04:15;14.40;52.10
31725;DHT22;18306;40.960;14.836;2024-03-08T13:06:45;14.40;51.70
31725;DHT22;18306;40.960;14.836;2024-03-08T13:09:17;14.40;51.50
31725;DHT22;18306;40.960;14.836;2024-03-08T13:11:46;14.40;51.30
31725;DHT22;18306;40.960;14.836;2024-03-08T13:14:13;14.40;51.60
31725;DHT22;18306;40.960;14.836;2024-03-08T13:16:39;14.40;51.30
31725;DHT22;18306;40.960;14.836;2024-03-08T13:19:06;14.40;50.70
31725;DHT22;18306;40.960;14.836;2024-03-08T13:21:33;14.50;51.40
31725;DHT22;18306;40.960;14.836;2024-03-08T13:24:01;14.50;50.40
31725;DHT22;18306;40.960;14.836;2024-03-08T13:26:29;14.40;51.10
31725;DHT22;18306;40.960;14.836;2024-03-08T13:29:01;14.50;50.40
31725;DHT22;18306;40.960;14.836;2024-03-08T13:31:29;14.50;50.60
31725;DHT22;18306;40.960;14.836;2024-03-08T13:33:58;14.50;50.40
31725;DHT22;18306;40.960;14.836;2024-03-08T13:36:25;14.50;48.90
31725;DHT22;18306;40.960;14.836;2024-03-08T13:38:55;14.50;48.80
31725;DHT22;18306;40.960;14.836;2024-03-08T13:41:25;14.60;47.80
31725;DHT22;18306;40.960;14.836;2024-03-08T13:43:52;14.50;47.40
31725;DHT22;18306;40.960;14.836;2024-03-08T13:46:19;14.60;47.60
31725;DHT22;18306;40.960;14.836;2024-03-08T13:48:46;14.70;46.70
31725;DHT22;18306;40.960;14.836;2024-03-08T13:51:14;14.70;47.00
31725;DHT22;18306;40.960;14.836;2024-03-08T13:53:42;14.60;46.40
31725;DHT22;18306;40.960;14.836;2024-03-08T13:56:09;14.60;45.70
31725;DHT22;18306;40.960;14.836;2024-03-08T13:58:41;14.50;46.00
31725;DHT22;18306;40.960;14.836;2024-03-08T14:01:10;14.50;46.40
31725;DHT22;18306;40.960;14.836;2024-03-08T14:03:38;14.50;47.30
31725;DHT22;18306;40.960;14.836;2024-03-08T14:06:08;14.50;47.90
31725;DHT22;18306;40.960;14.836;2024-03-08T14:08:36;14.50;47.00
31725;DHT22;18306;40.960;14.836;2024-03-08T14:11:04;14.40;46.90
31725;DHT22;18306;40.960;14.836;2024-03-08T14:13:42;14.40;47.30
31725;DHT22;18306;40.960;14.836;2024-03-08T14:16:13;14.40;48.60
31725;DHT22;18306;40.960;14.836;2024-03-08T14:18:40;14.50;48.40
31725;DHT22;18306;40.960;14.836;2024-03-08T14:21:07;14.40;49.30
31725;DHT22;18306;40.960;14.836;2024-03-08T14:23:40;14.40;49.10
31725;DHT22;18306;40.960;14.836;2024-03-08T14:26:07;14.50;48.80
31725;DHT22;18306;40.960;14.836;2024-03-08T14:28:34;14.60;48.10
31725;DHT22;18306;40.960;14.836;2024-03-08T14:31:03;14.70;49.10
31725;DHT22;18306;40.960;14.836;2024-03-08T14:33:30;14.80;48.30
31725;DHT22;18306;40.960;14.836;2024-03-08T14:35:58;14.80;49.10
31725;DHT22;18306;40.960;14.836;2024-03-08T14:38:25;14.80;49.30
31725;DHT22;18306;40.960;14.836;2024-03-08T14:40:53;14.90;49.00
31725;DHT22;18306;40.960;14.836;2024-03-08T14:43:21;14.90;49.10
31725;DHT22;18306;40.960;14.836;2024-03-08T14:45:49;14.80;48.50
31725;DHT22;18306;40.960;14.836;2024-03-08T14:48:17;14.70;49.00
31725;DHT22;18306;40.960;14.836;2024-03-08T14:50:46;14.70;48.90
31725;DHT22;18306;40.960;14.836;2024-03-08T14:53:13;14.60;48.90
31725;DHT22;18306;40.960;14.836;2024-03-08T14:55:45;14.60;49.30
31725;DHT22;18306;40.960;14.836;2024-03-08T14:58:13;14.50;49.50
31725;DHT22;18306;40.960;14.836;2024-03-08T15:00:40;14.50;49.00
31725;DHT22;18306;40.960;14.836;2024-03-08T15:03:08;14.40;49.10
31725;DHT22;18306;40.960;14.836;2024-03-08T15:05:39;14.30;49.00
31725;DHT22;18306;40.960;14.836;2024-03-08T15:08:10;14.20;49.40
31725;DHT22;18306;40.960;14.836;2024-03-08T15:10:37;14.20;49.80
31725;DHT22;18306;40.960;14.836;2024-03-08T15:13:06;14.10;49.70
31725;DHT22;18306;40.960;14.836;2024-03-08T15:15:42;14.10;50.10
31725;DHT22;18306;40.960;14.836;2024-03-08T15:18:12;14.00;50.80
31725;DHT22;18306;40.960;14.836;2024-03-08T15:20:39;14.00;50.50
31725;DHT22;18306;40.960;14.836;2024-03-08T15:23:06;13.90;51.00
31725;DHT22;18306;40.960;14.836;2024-03-08T15:25:42;13.80;50.80
31725;DHT22;18306;40.960;14.836;2024-03-08T15:28:13;13.80;51.20
31725;DHT22;18306;40.960;14.836;2024-03-08T15:30:42;13.80;51.50
31725;DHT22;18306;40.960;14.836;2024-03-08T15:33:13;13.80;51.30
31725;DHT22;18306;40.960;14.836;2024-03-08T15:35:41;13.70;51.10
31725;DHT22;18306;40.960;14.836;2024-03-08T15:38:13;13.70;50.30